Decoded Metar for KMOB (MOBILE in AL, USA) (IATA:MOB) | Meteo·Mobile Aviation Weather
aviador You're here:

KMOB Decoded Metar

MOBILE in AL, USA
Report Time2018-10-18 14:56:00
UTC Time2018-10-18 15:30:18
Flight Rules vfr VFR
Wind040° at 12 kt
W.Decomp.*RWY 36: 9.1 kt HW 7.9 kt RCW
RWY 32: 1.9 kt HW 11.9 kt RCW
W.Rank040° ranks 10
Current wind is above 040° avg. (6.0)
Visibility9999 m
Phenomena:N/A
Clouds:Few 200 Hf
Expected CloudBase > 3,600 ft AGL from Temp-Dew spread
CeilingNone
Temp21°C (ISA +6)
Dew Point12°C (57% RH)
AAT17.3°C
QNH1026 hPa
Density Alt709 ft
Elevation207 ft
Report Wrong Elevation
Raw Report
KMOB 181456Z 04012KT 10SM FEW200 21/12 A3030 RMK AO2 SLP258
T02110117 51010=

Extra information for KMOB:More info

Metar Taf Metar & Taf Last 4 Metars F.Rules Stats Wind Profile Meteogram Temp Stats Airport Information Weather charts Add Link Nearby VenuesMetar ALERT Operation Metar Decoded Social comments

AIRNAV info for KMOB